Time,TemperatureF,DewpointF,PressureIn,WindDirection,WindDirectionDegrees,WindSpeedMPH,WindSpeedGustMPH,Humidity,HourlyPrecipIn,Conditions,Clouds,dailyrainin,SoftwareType,DateUTC
2013-06-08 00:02:00,56.0,41.0,-100.00,NW,318,7.0,11.0,56,0.00,,,-99.99,,2013-06-08 06:02:00,
2013-06-08 00:12:00,55.0,41.0,-100.00,NNE,20,2.0,4.0,59,0.00,,,-99.99,,2013-06-08 06:12:00,
2013-06-08 00:22:00,54.0,41.0,-100.00,SSW,196,2.0,2.0,61,0.00,,,-99.99,,2013-06-08 06:22:00,
2013-06-08 00:32:00,54.0,41.0,-100.00,SSW,196,2.0,2.0,61,0.00,,,-99.99,,2013-06-08 06:32:00,
2013-06-08 00:42:00,54.0,41.0,-100.00,SSW,196,2.0,2.0,61,0.00,,,-99.99,,2013-06-08 06:42:00,
2013-06-08 00:52:00,55.0,41.0,-100.00,NE,54,1.0,3.0,61,0.00,,,-99.99,,2013-06-08 06:52:00,
2013-06-08 01:02:00,55.0,41.0,-100.00,NE,54,1.0,3.0,61,0.00,,,-99.99,,2013-06-08 07:02:00,
2013-06-08 01:12:00,54.0,41.0,-100.00,West,280,1.0,4.0,61,0.00,,,-99.99,,2013-06-08 07:12:00,
2013-06-08 01:22:00,54.0,41.0,-100.00,SSW,199,1.0,2.0,62,0.00,,,-99.99,,2013-06-08 07:22:00,
2013-06-08 01:32:00,54.0,41.0,-100.00,SSW,199,1.0,2.0,62,0.00,,,-99.99,,2013-06-08 07:32:00,
2013-06-08 01:42:00,54.0,41.0,-100.00,SW,230,1.0,3.0,61,0.00,,,-99.99,,2013-06-08 07:42:00,
2013-06-08 01:52:00,54.0,40.0,-100.00,North,10,1.0,2.0,61,0.00,,,-99.99,,2013-06-08 07:52:00,
2013-06-08 02:02:00,54.0,40.0,-100.00,North,10,1.0,2.0,61,0.00,,,-99.99,,2013-06-08 08:02:00,
2013-06-08 02:12:00,54.0,41.0,-100.00,West,270,3.0,4.0,62,0.00,,,-99.99,,2013-06-08 08:12:00,
2013-06-08 02:22:00,53.0,41.0,-100.00,WNW,292,3.0,4.0,62,0.00,,,-99.99,,2013-06-08 08:22:00,
2013-06-08 02:32:00,53.0,41.0,-100.00,WNW,292,3.0,4.0,62,0.00,,,-99.99,,2013-06-08 08:32:00,
2013-06-08 02:42:00,53.0,41.0,-100.00,WSW,250,2.0,6.0,64,0.00,,,-99.99,,2013-06-08 08:42:00,
2013-06-08 02:52:00,53.0,41.0,-100.00,WNW,284,2.0,5.0,64,0.00,,,-99.99,,2013-06-08 08:52:00,
2013-06-08 03:02:00,53.0,41.0,-100.00,WNW,284,2.0,5.0,64,0.00,,,-99.99,,2013-06-08 09:02:00,
2013-06-08 03:12:00,53.0,41.0,-100.00,West,278,2.0,4.0,64,0.00,,,-99.99,,2013-06-08 09:12:00,
2013-06-08 03:22:00,53.0,41.0,-100.00,WNW,301,6.0,8.0,64,0.00,,,-99.99,,2013-06-08 09:22:00,
2013-06-08 03:30:00,53.0,39.0,-100.00,NW,305,9.0,16.0,61,0.00,,,-99.99,,2013-06-08 09:30:00,
2013-06-08 03:33:00,53.0,41.0,-100.00,WNW,301,6.0,8.0,64,0.00,,,-99.99,,2013-06-08 09:33:00,
2013-06-08 03:42:00,52.0,41.0,-100.00,West,280,7.0,12.0,65,0.00,,,-99.99,,2013-06-08 09:42:00,
2013-06-08 03:53:00,52.0,40.0,-100.00,WNW,292,9.0,14.0,64,0.00,,,-99.99,,2013-06-08 09:53:00,
2013-06-08 04:02:00,52.0,40.0,-100.00,WNW,292,9.0,14.0,64,0.00,,,-99.99,,2013-06-08 10:02:00,
2013-06-08 04:12:00,53.0,39.0,-100.00,NW,305,9.0,16.0,61,0.00,,,-99.99,,2013-06-08 10:12:00,
2013-06-08 04:22:00,53.0,39.0,-100.00,NW,305,9.0,16.0,61,0.00,,,-99.99,,2013-06-08 10:22:00,
2013-06-08 04:43:00,52.0,39.0,-100.00,NW,316,5.0,12.0,60,0.00,,,-99.99,,2013-06-08 10:43:00,
2013-06-08 04:53:00,51.0,38.0,-100.00,WNW,299,3.0,5.0,62,0.00,,,-99.99,,2013-06-08 10:53:00,
2013-06-08 05:02:00,51.0,38.0,-100.00,WNW,299,3.0,5.0,62,0.00,,,-99.99,,2013-06-08 11:02:00,
2013-06-08 05:12:00,51.0,38.0,-100.00,WNW,299,9.0,13.0,61,0.00,,,-99.99,,2013-06-08 11:12:00,
2013-06-08 05:22:00,50.0,38.0,-100.00,WNW,288,6.0,10.0,61,0.00,,,-99.99,,2013-06-08 11:22:00,
2013-06-08 05:32:00,50.0,38.0,-100.00,WNW,288,6.0,10.0,61,0.00,,,-99.99,,2013-06-08 11:32:00,
2013-06-08 05:42:00,50.0,38.0,-100.00,NW,311,7.0,13.0,62,0.00,,,-99.99,,2013-06-08 11:42:00,
2013-06-08 05:52:00,50.0,38.0,-100.00,NW,320,5.0,8.0,64,0.00,,,-99.99,,2013-06-08 11:52:00,
2013-06-08 06:02:00,50.0,38.0,-100.00,NW,320,5.0,8.0,64,0.00,,,-99.99,,2013-06-08 12:02:00,
2013-06-08 06:12:00,49.0,38.0,-100.00,NNW,346,7.0,10.0,65,0.00,,,-99.99,,2013-06-08 12:12:00,
2013-06-08 06:22:00,49.0,38.0,-100.00,WNW,298,7.0,10.0,67,0.00,,,-99.99,,2013-06-08 12:22:00,
2013-06-08 06:32:00,49.0,38.0,-100.00,WNW,298,7.0,10.0,67,0.00,,,-99.99,,2013-06-08 12:32:00,
2013-06-08 06:42:00,49.0,37.0,-100.00,NW,322,4.0,11.0,64,0.00,,,-99.99,,2013-06-08 12:42:00,
2013-06-08 06:52:00,49.0,37.0,-100.00,NW,322,4.0,11.0,64,0.00,,,-99.99,,2013-06-08 12:52:00,
2013-06-08 07:02:00,49.0,37.0,-100.00,NW,322,4.0,11.0,64,0.00,,,-99.99,,2013-06-08 13:02:00,
2013-06-08 07:12:00,49.0,37.0,-100.00,NW,320,10.0,13.0,64,0.00,,,-99.99,,2013-06-08 13:12:00,
2013-06-08 07:22:00,48.0,37.0,-100.00,NW,316,6.0,11.0,64,0.00,,,-99.99,,2013-06-08 13:22:00,
2013-06-08 07:32:00,48.0,37.0,-100.00,NW,316,6.0,11.0,64,0.00,,,-99.99,,2013-06-08 13:32:00,
2013-06-08 07:42:00,48.0,36.0,-100.00,NW,304,4.0,7.0,63,0.00,,,-99.99,,2013-06-08 13:42:00,
2013-06-08 07:52:00,49.0,36.0,-100.00,East,79,2.0,3.0,63,0.00,,,-99.99,,2013-06-08 13:52:00,
2013-06-08 08:02:00,49.0,36.0,-100.00,East,79,2.0,3.0,63,0.00,,,-99.99,,2013-06-08 14:02:00,
2013-06-08 08:12:00,50.0,37.0,-100.00,WNW,292,3.0,6.0,60,0.00,,,-99.99,,2013-06-08 14:12:00,
2013-06-08 08:22:00,52.0,37.0,-100.00,NW,304,5.0,9.0,58,0.00,,,-99.99,,2013-06-08 14:22:00,
2013-06-08 08:32:00,52.0,37.0,-100.00,NW,304,5.0,9.0,58,0.00,,,-99.99,,2013-06-08 14:32:00,
2013-06-08 08:42:00,54.0,38.0,-100.00,WNW,294,4.0,6.0,53,0.00,,,-99.99,,2013-06-08 14:42:00,
2013-06-08 08:52:00,53.0,39.0,-100.00,NNW,335,4.0,7.0,57,0.00,,,-99.99,,2013-06-08 14:52:00,
2013-06-08 09:02:00,53.0,39.0,-100.00,NNW,335,4.0,7.0,57,0.00,,,-99.99,,2013-06-08 15:02:00,
2013-06-08 09:12:00,55.0,37.0,-100.00,WNW,287,3.0,6.0,51,0.00,,,-99.99,,2013-06-08 15:12:00,
2013-06-08 09:22:00,56.0,38.0,-100.00,WSW,243,4.0,8.0,49,0.00,,,-99.99,,2013-06-08 15:22:00,
2013-06-08 09:32:00,56.0,38.0,-100.00,WSW,243,4.0,8.0,49,0.00,,,-99.99,,2013-06-08 15:32:00,
2013-06-08 09:42:00,54.0,38.0,-100.00,South,181,3.0,6.0,54,0.00,,,-99.99,,2013-06-08 15:42:00,
2013-06-08 09:53:00,55.0,38.0,-100.00,SSW,208,5.0,7.0,51,0.00,,,-99.99,,2013-06-08 15:53:00,
2013-06-08 10:03:00,55.0,38.0,-100.00,SSW,208,5.0,7.0,51,0.00,,,-99.99,,2013-06-08 16:03:00,
2013-06-08 10:12:00,54.0,37.0,-100.00,SSW,193,5.0,8.0,53,0.00,,,-99.99,,2013-06-08 16:12:00,
2013-06-08 10:23:00,56.0,38.0,-100.00,WSW,237,4.0,8.0,51,0.00,,,-99.99,,2013-06-08 16:23:00,
2013-06-08 10:32:00,56.0,38.0,-100.00,WSW,237,4.0,8.0,51,0.00,,,-99.99,,2013-06-08 16:32:00,
2013-06-08 10:42:00,58.0,37.0,-100.00,SSW,195,4.0,6.0,46,0.00,,,-99.99,,2013-06-08 16:42:00,
2013-06-08 10:53:00,60.0,38.0,-100.00,SW,223,4.0,6.0,43,0.00,,,-99.99,,2013-06-08 16:53:00,
2013-06-08 11:02:00,60.0,38.0,-100.00,SW,223,4.0,6.0,43,0.00,,,-99.99,,2013-06-08 17:02:00,
2013-06-08 11:12:00,59.0,36.0,-100.00,SSW,192,4.0,8.0,41,0.00,,,-99.99,,2013-06-08 17:12:00,
2013-06-08 11:22:00,60.0,38.0,-100.00,SW,230,3.0,5.0,44,0.00,,,-99.99,,2013-06-08 17:22:00,
2013-06-08 11:32:00,60.0,38.0,-100.00,SW,230,3.0,5.0,44,0.00,,,-99.99,,2013-06-08 17:32:00,
2013-06-08 11:42:00,63.0,36.0,-100.00,SW,232,3.0,6.0,38,0.00,,,-99.99,,2013-06-08 17:42:00,
2013-06-08 11:52:00,63.0,34.0,-100.00,SW,230,4.0,8.0,34,0.00,,,-99.99,,2013-06-08 17:52:00,
2013-06-08 12:02:00,63.0,34.0,-100.00,SW,230,4.0,8.0,34,0.00,,,-99.99,,2013-06-08 18:02:00,
2013-06-08 12:12:00,61.0,31.0,-100.00,South,181,3.0,5.0,33,0.00,,,-99.99,,2013-06-08 18:12:00,
2013-06-08 12:22:00,64.0,33.0,-100.00,WSW,248,6.0,11.0,30,0.00,,,-99.99,,2013-06-08 18:22:00,
2013-06-08 12:32:00,64.0,33.0,-100.00,WSW,248,6.0,11.0,30,0.00,,,-99.99,,2013-06-08 18:32:00,
2013-06-08 12:41:00,60.0,31.0,-100.00,SSE,161,6.0,9.0,33,0.00,,,-99.99,,2013-06-08 18:41:00,
2013-06-08 12:52:00,63.0,32.0,-100.00,SSE,161,5.0,9.0,31,0.00,,,-99.99,,2013-06-08 18:52:00,
2013-06-08 13:02:00,63.0,32.0,-100.00,SSE,161,5.0,9.0,31,0.00,,,-99.99,,2013-06-08 19:02:00,
2013-06-08 13:12:00,63.0,29.0,-100.00,South,189,4.0,9.0,27,0.00,,,-99.99,,2013-06-08 19:12:00,
2013-06-08 13:22:00,64.0,29.0,-100.00,WSW,256,4.0,6.0,26,0.00,,,-99.99,,2013-06-08 19:22:00,
2013-06-08 13:32:00,64.0,29.0,-100.00,WSW,256,4.0,6.0,26,0.00,,,-99.99,,2013-06-08 19:32:00,
2013-06-08 13:42:00,67.0,29.0,-100.00,WSW,253,6.0,9.0,24,0.00,,,-99.99,,2013-06-08 19:42:00,
2013-06-08 13:53:00,66.0,29.0,-100.00,WSW,256,5.0,9.0,25,0.00,,,-99.99,,2013-06-08 19:53:00,
2013-06-08 14:02:00,66.0,29.0,-100.00,WSW,256,5.0,9.0,25,0.00,,,-99.99,,2013-06-08 20:02:00,
2013-06-08 14:12:00,67.0,30.0,-100.00,WNW,298,5.0,9.0,25,0.00,,,-99.99,,2013-06-08 20:12:00,
2013-06-08 14:22:00,66.0,29.0,-100.00,NW,313,10.0,15.0,25,0.00,,,-99.99,,2013-06-08 20:22:00,
2013-06-08 14:32:00,66.0,29.0,-100.00,NW,313,10.0,15.0,25,0.00,,,-99.99,,2013-06-08 20:32:00,
2013-06-08 14:42:00,68.0,27.0,-100.00,WNW,287,5.0,8.0,21,0.00,,,-99.99,,2013-06-08 20:42:00,
2013-06-08 14:52:00,70.0,30.0,-100.00,West,263,4.0,8.0,23,0.00,,,-99.99,,2013-06-08 20:52:00,
2013-06-08 15:02:00,70.0,30.0,-100.00,West,263,4.0,8.0,23,0.00,,,-99.99,,2013-06-08 21:02:00,
2013-06-08 15:12:00,70.0,31.0,-100.00,WNW,291,5.0,10.0,23,0.00,,,-99.99,,2013-06-08 21:12:00,
2013-06-08 15:22:00,68.0,31.0,-100.00,NW,305,6.0,11.0,25,0.00,,,-99.99,,2013-06-08 21:22:00,
2013-06-08 15:33:00,68.0,31.0,-100.00,NW,305,6.0,11.0,25,0.00,,,-99.99,,2013-06-08 21:33:00,
2013-06-08 15:43:00,68.0,29.0,-100.00,West,277,7.0,10.0,23,0.00,,,-99.99,,2013-06-08 21:43:00,
2013-06-08 15:53:00,69.0,33.0,-100.00,NW,312,9.0,14.0,26,0.00,,,-99.99,,2013-06-08 21:53:00,
2013-06-08 16:02:00,69.0,33.0,-100.00,NW,312,9.0,14.0,26,0.00,,,-99.99,,2013-06-08 22:02:00,
2013-06-08 16:12:00,72.0,28.0,-100.00,WSW,248,4.0,7.0,20,0.00,,,-99.99,,2013-06-08 22:12:00,
2013-06-08 16:22:00,70.0,28.0,-100.00,SW,215,8.0,13.0,21,0.00,,,-99.99,,2013-06-08 22:22:00,
2013-06-08 16:33:00,70.0,28.0,-100.00,SW,215,8.0,13.0,21,0.00,,,-99.99,,2013-06-08 22:33:00,
2013-06-08 16:42:00,70.0,29.0,-100.00,SW,216,3.0,8.0,22,0.00,,,-99.99,,2013-06-08 22:42:00,
2013-06-08 16:52:00,69.0,31.0,-100.00,WNW,295,7.0,10.0,24,0.00,,,-99.99,,2013-06-08 22:52:00,
2013-06-08 17:02:00,69.0,31.0,-100.00,WNW,295,7.0,10.0,24,0.00,,,-99.99,,2013-06-08 23:02:00,
2013-06-08 17:12:00,70.0,32.0,-100.00,NNW,332,6.0,10.0,24,0.00,,,-99.99,,2013-06-08 23:12:00,
2013-06-08 17:22:00,72.0,28.0,-100.00,WSW,239,4.0,9.0,19,0.00,,,-99.99,,2013-06-08 23:22:00,
2013-06-08 17:30:00,69.0,29.0,-100.00,NNW,328,15.0,22.0,22,0.00,,,-99.99,,2013-06-08 23:30:00,
2013-06-08 17:32:00,72.0,28.0,-100.00,WSW,239,4.0,9.0,19,0.00,,,-99.99,,2013-06-08 23:32:00,
2013-06-08 17:42:00,71.0,27.0,-100.00,WNW,282,9.0,14.0,19,0.00,,,-99.99,,2013-06-08 23:42:00,
2013-06-08 17:52:00,70.0,28.0,-100.00,NW,319,9.0,15.0,21,0.00,,,-99.99,,2013-06-08 23:52:00,
2013-06-08 18:02:00,70.0,28.0,-100.00,NW,319,9.0,15.0,21,0.00,,,-99.99,,2013-06-09 00:02:00,
2013-06-08 18:12:00,69.0,29.0,-100.00,NNW,328,15.0,22.0,22,0.00,,,-99.99,,2013-06-09 00:12:00,
2013-06-08 18:22:00,69.0,29.0,-100.00,NNW,328,15.0,22.0,22,0.00,,,-99.99,,2013-06-09 00:22:00,
2013-06-08 18:52:00,71.0,31.0,-100.00,SW,226,4.0,9.0,23,0.00,,,-99.99,,2013-06-09 00:52:00,
2013-06-08 19:02:00,71.0,31.0,-100.00,SW,226,4.0,9.0,23,0.00,,,-99.99,,2013-06-09 01:02:00,
2013-06-08 19:12:00,71.0,33.0,-100.00,WNW,282,4.0,7.0,24,0.00,,,-99.99,,2013-06-09 01:12:00,
2013-06-08 19:22:00,69.0,33.0,-100.00,West,270,3.0,6.0,27,0.00,,,-99.99,,2013-06-09 01:22:00,
2013-06-08 19:32:00,69.0,33.0,-100.00,West,270,3.0,6.0,27,0.00,,,-99.99,,2013-06-09 01:32:00,
2013-06-08 19:42:00,69.0,33.0,-100.00,SW,234,6.0,10.0,26,0.00,,,-99.99,,2013-06-09 01:42:00,
2013-06-08 19:52:00,67.0,33.0,-100.00,WNW,292,2.0,5.0,28,0.00,,,-99.99,,2013-06-09 01:52:00,
2013-06-08 20:02:00,67.0,33.0,-100.00,WNW,292,2.0,5.0,28,0.00,,,-99.99,,2013-06-09 02:02:00,
2013-06-08 20:12:00,67.0,32.0,-100.00,West,277,5.0,12.0,27,0.00,,,-99.99,,2013-06-09 02:12:00,
2013-06-08 20:22:00,65.0,32.0,-100.00,NW,308,7.0,10.0,28,0.00,,,-99.99,,2013-06-09 02:22:00,
2013-06-08 20:32:00,65.0,32.0,-100.00,NW,308,7.0,10.0,28,0.00,,,-99.99,,2013-06-09 02:32:00,
2013-06-08 20:42:00,64.0,33.0,-100.00,WNW,299,6.0,11.0,31,0.00,,,-99.99,,2013-06-09 02:42:00,
2013-06-08 20:52:00,63.0,33.0,-100.00,WSW,247,5.0,10.0,33,0.00,,,-99.99,,2013-06-09 02:52:00,
2013-06-08 21:02:00,63.0,33.0,-100.00,WSW,247,5.0,10.0,33,0.00,,,-99.99,,2013-06-09 03:02:00,
2013-06-08 21:12:00,62.0,33.0,-100.00,WNW,295,6.0,10.0,33,0.00,,,-99.99,,2013-06-09 03:12:00,
2013-06-08 21:22:00,61.0,33.0,-100.00,WNW,289,3.0,4.0,35,0.00,,,-99.99,,2013-06-09 03:22:00,
2013-06-08 21:32:00,61.0,33.0,-100.00,WNW,289,3.0,4.0,35,0.00,,,-99.99,,2013-06-09 03:32:00,
2013-06-08 21:43:00,60.0,34.0,-100.00,West,261,1.0,3.0,37,0.00,,,-99.99,,2013-06-09 03:43:00,
2013-06-08 21:53:00,59.0,34.0,-100.00,WNW,299,2.0,2.0,39,0.00,,,-99.99,,2013-06-09 03:53:00,
2013-06-08 22:02:00,59.0,34.0,-100.00,WNW,299,2.0,2.0,39,0.00,,,-99.99,,2013-06-09 04:02:00,
2013-06-08 22:12:00,57.0,36.0,-100.00,WNW,295,4.0,6.0,45,0.00,,,-99.99,,2013-06-09 04:12:00,
2013-06-08 22:22:00,58.0,34.0,-100.00,WNW,302,5.0,8.0,41,0.00,,,-99.99,,2013-06-09 04:22:00,
2013-06-08 22:32:00,58.0,34.0,-100.00,WNW,302,5.0,8.0,41,0.00,,,-99.99,,2013-06-09 04:32:00,
2013-06-08 22:42:00,57.0,34.0,-100.00,NW,305,5.0,7.0,42,0.00,,,-99.99,,2013-06-09 04:42:00,
2013-06-08 22:53:00,57.0,35.0,-100.00,WNW,296,5.0,8.0,43,0.00,,,-99.99,,2013-06-09 04:53:00,
2013-06-08 23:02:00,57.0,35.0,-100.00,WNW,296,5.0,8.0,43,0.00,,,-99.99,,2013-06-09 05:02:00,
2013-06-08 23:12:00,57.0,34.0,-100.00,WNW,288,5.0,9.0,42,0.00,,,-99.99,,2013-06-09 05:12:00,
2013-06-08 23:22:00,56.0,35.0,-100.00,NW,305,4.0,6.0,44,0.00,,,-99.99,,2013-06-09 05:22:00,
2013-06-08 23:32:00,56.0,35.0,-100.00,NW,305,4.0,6.0,44,0.00,,,-99.99,,2013-06-09 05:32:00,
2013-06-08 23:42:00,56.0,34.0,-100.00,WNW,296,5.0,8.0,44,0.00,,,-99.99,,2013-06-09 05:42:00,
2013-06-08 23:52:00,56.0,35.0,-100.00,WNW,296,3.0,5.0,44,0.00,,,-99.99,,2013-06-09 05:52:00,